Darstellungsparameter: Aktuell verwendete Einstellungen:
Skalierung der Graphiken ... ?
xyx+y,   Skalierungsfaktor:      Skalierung: Modus: x, Faktor: 1
Darstellungszeitraum ... ?
Vom - - bis: - -   Zeitraum: 11.06.2009 - 11.06.2009
Min/Max/Avg-Anzeige ... ?
Zeige MMA aktuell
Zeige MMA Monat
Zeige MMA alles
Zeige --A aktuell
Zeige --A Monat
Zeige --A alles
Keine MMA-Anzeige
MMA:
Keine MMA-Graphiken
MMA-Basis: 11.06.2009 - 11.06.2009
Quicknavigation für Darstellung... ?
Tage:      1T, 2T, 3T, 5T -1T -2T -3T -5T +1T +2T +3T +5T
Wochen: 1W, 2W, 3W -1W -2W -3W +1W +2W +3W
Monate: 1M, 3M, 6M -1M -3M -6M +1M +3M +6M
Jahre:    1J, 3J, 5J, 10J -1J -3J -5J -10J +1J +3J +5J +10J
Nutze für die Darstellung ... ?
Originaldaten oder Mittelwerte auf ...
Stundenbasis Tagesbasis Wochenbasis
Monatsbasis Jahresbasis      Datenbasis: Original-Daten
Darstellen als:
Statistik (Auto) Statistik J:M      Darstellung:
Zur Graphik,    zurück zur Übersicht aller Sensoren.
 
Tabellarische Datenbersicht: ?
 
Sensor: Nr:Datum:Temp:Abs-Feuchte:Windchill:Wind:
Aussen-T/F 1 11-06-2009 00:00:51 14.5 C 10.45 g/m*3 14.5 C 0 km/h
2 11-06-2009 00:12:51 14.2 C 10.14 g/m*3 14.2 C 0 km/h
3 11-06-2009 00:24:51 14.2 C 10.26 g/m*3 14.2 C 0 km/h
4 11-06-2009 00:36:51 14.1 C 10.19 g/m*3 14.1 C 0 km/h
5 11-06-2009 00:48:51 14 C 10.25 g/m*3 14 C 0 km/h
6 11-06-2009 01:00:51 13.8 C 10.25 g/m*3 13.8 C 0 km/h
7 11-06-2009 01:12:51 13.9 C 10.43 g/m*3 13.9 C 0 km/h
8 11-06-2009 01:24:51 13.9 C 10.67 g/m*3 13.9 C 0 km/h
9 11-06-2009 01:36:51 13.9 C 10.79 g/m*3 13.9 C 0 km/h
10 11-06-2009 01:48:51 13.9 C 10.91 g/m*3 13.9 C 0 km/h
11 11-06-2009 02:00:51 14 C 10.98 g/m*3 14 C 0 km/h
12 11-06-2009 02:12:51 13.9 C 11.03 g/m*3 13.9 C 0 km/h
13 11-06-2009 02:24:51 13.9 C 11.03 g/m*3 13.9 C 0 km/h
14 11-06-2009 02:36:51 14 C 11.1 g/m*3 14 C 0 km/h
15 11-06-2009 02:48:51 14 C 11.1 g/m*3 14 C 0 km/h
16 11-06-2009 03:00:52 14 C 11.1 g/m*3 14 C 0 km/h
17 11-06-2009 03:12:52 14.1 C 11.29 g/m*3 14.1 C 0 km/h
18 11-06-2009 03:24:52 14.2 C 11.36 g/m*3 14.2 C 0 km/h
19 11-06-2009 03:36:52 14.2 C 11.36 g/m*3 14.2 C 0 km/h
20 11-06-2009 03:48:52 14 C 11.22 g/m*3 14 C 0 km/h
21 11-06-2009 04:00:52 14 C 11.22 g/m*3 14 C 0 km/h
22 11-06-2009 04:12:52 14 C 11.34 g/m*3 14 C 0 km/h
23 11-06-2009 04:24:52 14 C 11.34 g/m*3 14 C 0 km/h
24 11-06-2009 04:36:52 14.1 C 11.41 g/m*3 14.1 C 0 km/h
25 11-06-2009 04:48:52 14.2 C 11.48 g/m*3 14.2 C 0 km/h
Sensor: Nr:Datum:Temp:Abs-Feuchte:Windchill:Wind:
Aussen-T/F 26 11-06-2009 05:00:52 14.2 C 11.48 g/m*3 14.2 C 0 km/h
27 11-06-2009 05:12:52 14.2 C 11.48 g/m*3 14.2 C 0 km/h
28 11-06-2009 05:24:52 14.4 C 11.5 g/m*3 14.4 C 0 km/h
29 11-06-2009 05:36:52 14.6 C 11.26 g/m*3 14.6 C 0 km/h
30 11-06-2009 05:48:52 14.5 C 11.07 g/m*3 14.5 C 0 km/h
31 11-06-2009 06:00:52 14.6 C 11.14 g/m*3 14.6 C 0 km/h
32 11-06-2009 06:12:52 14.2 C 10.87 g/m*3 14.2 C 0 km/h
33 11-06-2009 06:24:52 14.2 C 10.87 g/m*3 14.2 C 0 km/h
34 11-06-2009 06:36:52 14.3 C 10.93 g/m*3 14.3 C 0 km/h
35 11-06-2009 06:48:53 14.4 C 11 g/m*3 14.4 C 0 km/h
36 11-06-2009 07:00:53 14.4 C 10.75 g/m*3 14.4 C 0 km/h
37 11-06-2009 07:12:53 14.5 C 10.82 g/m*3 14.5 C 0 km/h
38 11-06-2009 07:24:53 14.5 C 10.94 g/m*3 14.5 C 0 km/h
39 11-06-2009 07:36:53 14.8 C 11.02 g/m*3 14.8 C 0 km/h
40 11-06-2009 07:48:53 14.7 C 10.32 g/m*3 14.7 C 0 km/h
41 11-06-2009 08:00:53 14.7 C 10.2 g/m*3 14.7 C 0 km/h
42 11-06-2009 08:12:53 14.7 C 9.57 g/m*3 14.7 C 0 km/h
43 11-06-2009 08:24:53 14.7 C 9.57 g/m*3 14.7 C 0 km/h
44 11-06-2009 08:36:50 14.8 C 9.5 g/m*3 14.8 C 0 km/h
45 11-06-2009 08:48:49 14.9 C 8.92 g/m*3 14.9 C 0 km/h
46 11-06-2009 09:00:50 15 C 8.72 g/m*3 15 C 0 km/h
47 11-06-2009 09:12:50 15 C 8.33 g/m*3 15 C 0 km/h
48 11-06-2009 09:24:49 15.3 C 8.23 g/m*3 15.3 C 0 km/h
49 11-06-2009 09:36:49 15.1 C 7.74 g/m*3 15.1 C 0 km/h
50 11-06-2009 09:48:02 15 C 7.82 g/m*3 15 C 0 km/h
Sensor: Nr:Datum:Temp:Abs-Feuchte:Windchill:Wind:
Aussen-T/F 51 11-06-2009 10:00:02 15 C 7.82 g/m*3 15 C 0 km/h
52 11-06-2009 10:12:01 14.9 C 8.03 g/m*3 14.9 C 0 km/h
53 11-06-2009 10:24:02 15.1 C 7.87 g/m*3 15.1 C 0 km/h
54 11-06-2009 10:36:01 15.5 C 7.8 g/m*3 15.5 C 0 km/h
55 11-06-2009 10:48:01 15.7 C 7.89 g/m*3 15.7 C 0 km/h
56 11-06-2009 11:00:01 15.2 C 8.05 g/m*3 15.2 C 0 km/h
57 11-06-2009 11:12:01 15.3 C 7.84 g/m*3 15.3 C 0 km/h
58 11-06-2009 11:24:01 15.5 C 7.53 g/m*3 15.5 C 0 km/h
59 11-06-2009 11:36:01 15.4 C 7.23 g/m*3 15.4 C 0 km/h
60 11-06-2009 11:48:01 15.3 C 7.05 g/m*3 15.3 C 0 km/h
61 11-06-2009 12:00:01 15.2 C 6.75 g/m*3 15.2 C 0 km/h
62 11-06-2009 12:12:01 15.2 C 6.62 g/m*3 15.2 C 0 km/h
63 11-06-2009 12:24:00 15.3 C 6.53 g/m*3 15.3 C 0 km/h
64 11-06-2009 12:36:00 15.4 C 6.57 g/m*3 15.4 C 0 km/h
65 11-06-2009 12:48:00 15.3 C 6.66 g/m*3 15.3 C 0 km/h
66 11-06-2009 13:00:00 15.2 C 6.62 g/m*3 15.2 C 0 km/h
67 11-06-2009 13:12:00 15.3 C 6.66 g/m*3 15.3 C 0 km/h
68 11-06-2009 13:24:59 15.4 C 6.96 g/m*3 15.4 C 0 km/h
69 11-06-2009 13:36:00 15.2 C 6.88 g/m*3 15.2 C 0 km/h
70 11-06-2009 13:48:59 15.4 C 6.96 g/m*3 15.4 C 0 km/h
71 11-06-2009 14:00:59 15.5 C 7.67 g/m*3 15.5 C 0 km/h
72 11-06-2009 14:12:59 15.8 C 7.81 g/m*3 15.8 C 0 km/h
73 11-06-2009 14:24:00 17.3 C 7.66 g/m*3 17.3 C 0 km/h
74 11-06-2009 14:36:59 16.9 C 7.05 g/m*3 16.9 C 0 km/h
75 11-06-2009 14:48:59 16.2 C 7.45 g/m*3 16.2 C 0 km/h
Sensor: Nr:Datum:Temp:Abs-Feuchte:Windchill:Wind:
Aussen-T/F 76 11-06-2009 15:00:58 16.4 C 7.4 g/m*3 16.4 C 0 km/h
77 11-06-2009 15:12:58 16.3 C 7.63 g/m*3 16.3 C 0 km/h
78 11-06-2009 15:24:59 16.8 C 7.43 g/m*3 16.8 C 0 km/h
79 11-06-2009 15:36:59 16.8 C 7.29 g/m*3 16.8 C 0 km/h
80 11-06-2009 15:48:58 17.5 C 7.45 g/m*3 17.5 C 0 km/h
81 11-06-2009 16:00:59 16.7 C 7.82 g/m*3 16.7 C 0 km/h
82 11-06-2009 16:12:59 16.4 C 8.1 g/m*3 16.4 C 0 km/h
83 11-06-2009 16:24:58 17.3 C 8.1 g/m*3 17.3 C 0 km/h
84 11-06-2009 16:36:58 16.6 C 7.63 g/m*3 16.6 C 0 km/h
85 11-06-2009 16:48:58 16 C 7.9 g/m*3 16 C 0 km/h
86 11-06-2009 17:00:58 16.2 C 7.72 g/m*3 16.2 C 0 km/h
87 11-06-2009 17:12:59 16.4 C 7.82 g/m*3 16.4 C 0 km/h
88 11-06-2009 17:24:57 16.4 C 8.37 g/m*3 16.4 C 0 km/h
89 11-06-2009 17:36:57 18.3 C 8.6 g/m*3 18.3 C 0 km/h
90 11-06-2009 17:48:57 17.5 C 8.05 g/m*3 17.5 C 0 km/h
91 11-06-2009 18:00:57 16 C 8.31 g/m*3 16 C 0 km/h
92 11-06-2009 18:12:57 14.4 C 9.02 g/m*3 14.4 C 0 km/h
93 11-06-2009 18:24:57 13.2 C 9.19 g/m*3 13.2 C 0 km/h
94 11-06-2009 18:36:57 13.3 C 9.7 g/m*3 13.3 C 0 km/h
95 11-06-2009 18:48:57 14.2 C 10.38 g/m*3 14.2 C 0 km/h
96 11-06-2009 19:00:56 14.2 C 10.38 g/m*3 14.2 C 0 km/h
97 11-06-2009 19:12:56 15.3 C 10.84 g/m*3 15.3 C 0 km/h
98 11-06-2009 19:24:56 16 C 10.49 g/m*3 16 C 0 km/h
99 11-06-2009 19:36:57 16 C 10.63 g/m*3 16 C 0 km/h
100 11-06-2009 19:48:56 14.9 C 10.07 g/m*3 14.9 C 0 km/h
Sensor: Nr:Datum:Temp:Abs-Feuchte:Windchill:Wind:
Aussen-T/F 101 11-06-2009 20:00:07 14.4 C 9.89 g/m*3 14.4 C 0 km/h
102 11-06-2009 20:12:07 13.4 C 9.65 g/m*3 13.4 C 0 km/h
103 11-06-2009 20:24:07 11.9 C 8.68 g/m*3 11.9 C 0 km/h
104 11-06-2009 20:36:07 11.9 C 8.79 g/m*3 11.9 C 0 km/h
105 11-06-2009 20:48:56 12.3 C 8.9 g/m*3 12.3 C 0 km/h
106 11-06-2009 21:00:56 12.5 C 9.02 g/m*3 12.5 C 0 km/h
107 11-06-2009 21:12:56 12.5 C 8.8 g/m*3 12.5 C 0 km/h
108 11-06-2009 21:24:56 12.6 C 8.85 g/m*3 12.6 C 0 km/h
109 11-06-2009 21:36:56 12.5 C 8.8 g/m*3 12.5 C 0 km/h
110 11-06-2009 21:48:56 12.3 C 8.8 g/m*3 12.3 C 0 km/h
111 11-06-2009 22:01:57 12.3 C 8.8 g/m*3 12.3 C 0 km/h
112 11-06-2009 22:13:57 12.4 C 8.85 g/m*3 12.4 C 0 km/h
113 11-06-2009 22:25:57 12.4 C 8.74 g/m*3 12.4 C 0 km/h
114 11-06-2009 22:37:57 12.5 C 8.69 g/m*3 12.5 C 0 km/h
115 11-06-2009 22:49:57 12.4 C 8.74 g/m*3 12.4 C 0 km/h
116 11-06-2009 23:01:57 12.4 C 8.74 g/m*3 12.4 C 0 km/h
117 11-06-2009 23:13:57 12.4 C 8.63 g/m*3 12.4 C 0 km/h
118 11-06-2009 23:25:57 12.1 C 8.47 g/m*3 12.1 C 0 km/h
119 11-06-2009 23:37:58 12 C 8.42 g/m*3 12 C 0 km/h
120 11-06-2009 23:49:58 12 C 8.31 g/m*3 12 C 0 km/h

Legende:
   Min
   Max


Maximal/Minimal-Werte vom 11.06.2009 - 11.06.2009

Sensor Min Max Avg
Temp
(Aussen-T/F)
11.9 °C
11-06-2009  20:24:07
18.3 °C
11-06-2009  17:36:57
14.6 °C
Abs-Feuchte
(Aussen-T/F)
6.53 g/m*3
11-06-2009  12:24:00
11.5 g/m*3
11-06-2009  05:24:52
9.1 g/m*3
Windchill
(Aussen-T/F)
11.9 C
11-06-2009  20:24:07
18.3 C
11-06-2009  17:36:57
14.48 C

Die Daten stammen von einer Davis Vantage Pro 2 Wetter-Station und werden unter Linux mit der Software wview2wettercgi und aufbereitet. Alle Angaben erfolgen ohne Gewähr für ihre Vollständigkeit oder Richtigkeit.
Kontakt: Rainer Krienke krienke@uni-koblenz.de . Meine Webseiten an der Uni Koblenz oder privat.
Version: $Revision: 0.78 $